sensor_id;sensor_type;location;lat;lon;timestamp;P1;durP1;ratioP1;P2;durP2;ratioP2
46222;SDS011;31943;51.410;7.564;2023-04-01T00:02:20;0.80;;;0.30;;
46222;SDS011;31943;51.410;7.564;2023-04-01T00:04:49;1.88;;;0.40;;
46222;SDS011;31943;51.410;7.564;2023-04-01T00:07:15;3.10;;;0.50;;
46222;SDS011;31943;51.410;7.564;2023-04-01T00:09:44;2.05;;;0.70;;
46222;SDS011;31943;51.410;7.564;2023-04-01T00:12:09;1.10;;;0.28;;
46222;SDS011;31943;51.410;7.564;2023-04-01T00:14:35;1.20;;;0.52;;
46222;SDS011;31943;51.410;7.564;2023-04-01T00:17:00;4.28;;;0.65;;
46222;SDS011;31943;51.410;7.564;2023-04-01T00:19:26;3.00;;;0.80;;
46222;SDS011;31943;51.410;7.564;2023-04-01T00:21:52;4.20;;;1.00;;
46222;SDS011;31943;51.410;7.564;2023-04-01T00:24:17;1.10;;;0.55;;
46222;SDS011;31943;51.410;7.564;2023-04-01T00:26:45;2.00;;;0.50;;
46222;SDS011;31943;51.410;7.564;2023-04-01T00:29:13;2.25;;;0.32;;
46222;SDS011;31943;51.410;7.564;2023-04-01T00:31:39;3.55;;;0.40;;
46222;SDS011;31943;51.410;7.564;2023-04-01T00:34:04;1.88;;;0.60;;
46222;SDS011;31943;51.410;7.564;2023-04-01T00:36:30;2.33;;;0.40;;
46222;SDS011;31943;51.410;7.564;2023-04-01T00:38:57;1.55;;;0.57;;
46222;SDS011;31943;51.410;7.564;2023-04-01T00:41:23;2.88;;;0.47;;
46222;SDS011;31943;51.410;7.564;2023-04-01T00:43:50;1.48;;;0.40;;
46222;SDS011;31943;51.410;7.564;2023-04-01T00:46:17;1.50;;;0.40;;
46222;SDS011;31943;51.410;7.564;2023-04-01T00:48:44;2.45;;;0.32;;
46222;SDS011;31943;51.410;7.564;2023-04-01T00:51:14;1.92;;;0.50;;
46222;SDS011;31943;51.410;7.564;2023-04-01T00:53:43;1.98;;;0.50;;
46222;SDS011;31943;51.410;7.564;2023-04-01T00:56:13;0.95;;;0.30;;
46222;SDS011;31943;51.410;7.564;2023-04-01T00:58:46;1.88;;;0.50;;
46222;SDS011;31943;51.410;7.564;2023-04-01T01:01:19;1.67;;;0.40;;
46222;SDS011;31943;51.410;7.564;2023-04-01T01:03:47;2.50;;;0.50;;
46222;SDS011;31943;51.410;7.564;2023-04-01T01:06:16;1.17;;;0.40;;
46222;SDS011;31943;51.410;7.564;2023-04-01T01:09:10;0.90;;;0.40;;
46222;SDS011;31943;51.410;7.564;2023-04-01T01:11:50;1.83;;;0.38;;
46222;SDS011;31943;51.410;7.564;2023-04-01T01:14:23;1.30;;;0.40;;
46222;SDS011;31943;51.410;7.564;2023-04-01T01:17:04;2.00;;;0.50;;
46222;SDS011;31943;51.410;7.564;2023-04-01T01:22:32;1.08;;;0.30;;
46222;SDS011;31943;51.410;7.564;2023-04-01T01:25:18;1.60;;;0.40;;
46222;SDS011;31943;51.410;7.564;2023-04-01T01:27:58;2.90;;;0.63;;
46222;SDS011;31943;51.410;7.564;2023-04-01T01:30:39;0.52;;;0.20;;
46222;SDS011;31943;51.410;7.564;2023-04-01T01:36:08;1.33;;;0.30;;
46222;SDS011;31943;51.410;7.564;2023-04-01T01:38:42;1.10;;;0.38;;
46222;SDS011;31943;51.410;7.564;2023-04-01T01:41:07;1.48;;;0.30;;
46222;SDS011;31943;51.410;7.564;2023-04-01T01:43:35;0.25;;;0.20;;
46222;SDS011;31943;51.410;7.564;2023-04-01T01:46:05;2.03;;;0.43;;
46222;SDS011;31943;51.410;7.564;2023-04-01T01:48:34;0.95;;;0.20;;
46222;SDS011;31943;51.410;7.564;2023-04-01T01:51:01;0.30;;;0.20;;
46222;SDS011;31943;51.410;7.564;2023-04-01T01:53:32;0.90;;;0.30;;
46222;SDS011;31943;51.410;7.564;2023-04-01T01:55:58;2.30;;;0.40;;
46222;SDS011;31943;51.410;7.564;2023-04-01T01:58:27;2.58;;;0.45;;
46222;SDS011;31943;51.410;7.564;2023-04-01T02:00:56;0.50;;;0.30;;
46222;SDS011;31943;51.410;7.564;2023-04-01T02:03:24;0.50;;;0.20;;
46222;SDS011;31943;51.410;7.564;2023-04-01T02:05:55;0.95;;;0.20;;
46222;SDS011;31943;51.410;7.564;2023-04-01T02:08:22;1.33;;;0.38;;
46222;SDS011;31943;51.410;7.564;2023-04-01T02:10:54;2.88;;;0.45;;
46222;SDS011;31943;51.410;7.564;2023-04-01T02:13:26;1.58;;;0.43;;
46222;SDS011;31943;51.410;7.564;2023-04-01T02:15:57;0.93;;;0.20;;
46222;SDS011;31943;51.410;7.564;2023-04-01T02:18:25;1.35;;;0.50;;
46222;SDS011;31943;51.410;7.564;2023-04-01T02:20:54;2.88;;;0.25;;
46222;SDS011;31943;51.410;7.564;2023-04-01T02:23:24;0.68;;;0.30;;
46222;SDS011;31943;51.410;7.564;2023-04-01T02:25:50;0.85;;;0.20;;
46222;SDS011;31943;51.410;7.564;2023-04-01T02:28:18;1.33;;;0.20;;
46222;SDS011;31943;51.410;7.564;2023-04-01T02:30:45;0.90;;;0.40;;
46222;SDS011;31943;51.410;7.564;2023-04-01T02:33:24;2.50;;;0.30;;
46222;SDS011;31943;51.410;7.564;2023-04-01T02:35:50;2.00;;;0.22;;
46222;SDS011;31943;51.410;7.564;2023-04-01T02:38:15;1.55;;;0.20;;
46222;SDS011;31943;51.410;7.564;2023-04-01T02:40:43;0.35;;;0.15;;
46222;SDS011;31943;51.410;7.564;2023-04-01T02:43:11;0.82;;;0.20;;
46222;SDS011;31943;51.410;7.564;2023-04-01T02:45:38;1.08;;;0.32;;
46222;SDS011;31943;51.410;7.564;2023-04-01T02:48:04;0.43;;;0.20;;
46222;SDS011;31943;51.410;7.564;2023-04-01T02:50:30;1.23;;;0.38;;
46222;SDS011;31943;51.410;7.564;2023-04-01T02:52:56;1.25;;;0.22;;
46222;SDS011;31943;51.410;7.564;2023-04-01T02:55:22;1.67;;;0.20;;
46222;SDS011;31943;51.410;7.564;2023-04-01T02:57:47;2.72;;;0.30;;
46222;SDS011;31943;51.410;7.564;2023-04-01T03:00:14;0.80;;;0.20;;
46222;SDS011;31943;51.410;7.564;2023-04-01T03:02:43;0.20;;;0.10;;
46222;SDS011;31943;51.410;7.564;2023-04-01T03:05:09;1.05;;;0.13;;
46222;SDS011;31943;51.410;7.564;2023-04-01T03:07:35;0.73;;;0.20;;
46222;SDS011;31943;51.410;7.564;2023-04-01T03:10:01;0.10;;;0.10;;
46222;SDS011;31943;51.410;7.564;2023-04-01T03:12:27;0.30;;;0.10;;
46222;SDS011;31943;51.410;7.564;2023-04-01T03:14:53;1.65;;;0.35;;
46222;SDS011;31943;51.410;7.564;2023-04-01T03:17:18;0.93;;;0.30;;
46222;SDS011;31943;51.410;7.564;2023-04-01T03:19:46;0.28;;;0.15;;
46222;SDS011;31943;51.410;7.564;2023-04-01T03:22:11;0.30;;;0.13;;
46222;SDS011;31943;51.410;7.564;2023-04-01T03:24:37;0.20;;;0.13;;
46222;SDS011;31943;51.410;7.564;2023-04-01T03:27:03;0.98;;;0.30;;
46222;SDS011;31943;51.410;7.564;2023-04-01T03:29:28;1.15;;;0.38;;
46222;SDS011;31943;51.410;7.564;2023-04-01T03:31:54;1.00;;;0.13;;
46222;SDS011;31943;51.410;7.564;2023-04-01T03:34:20;0.60;;;0.10;;
46222;SDS011;31943;51.410;7.564;2023-04-01T03:36:47;0.85;;;0.45;;
46222;SDS011;31943;51.410;7.564;2023-04-01T03:39:13;0.40;;;0.15;;
46222;SDS011;31943;51.410;7.564;2023-04-01T03:41:39;1.25;;;0.20;;
46222;SDS011;31943;51.410;7.564;2023-04-01T03:44:05;0.22;;;0.10;;
46222;SDS011;31943;51.410;7.564;2023-04-01T03:46:30;0.25;;;0.10;;
46222;SDS011;31943;51.410;7.564;2023-04-01T03:48:56;1.00;;;0.10;;
46222;SDS011;31943;51.410;7.564;2023-04-01T03:51:22;0.43;;;0.13;;
46222;SDS011;31943;51.410;7.564;2023-04-01T03:53:49;0.70;;;0.13;;
46222;SDS011;31943;51.410;7.564;2023-04-01T03:56:16;0.20;;;0.10;;
46222;SDS011;31943;51.410;7.564;2023-04-01T03:58:43;1.27;;;0.10;;
46222;SDS011;31943;51.410;7.564;2023-04-01T04:01:15;0.57;;;0.20;;
46222;SDS011;31943;51.410;7.564;2023-04-01T04:03:42;0.47;;;0.10;;
46222;SDS011;31943;51.410;7.564;2023-04-01T04:06:10;0.57;;;0.10;;
46222;SDS011;31943;51.410;7.564;2023-04-01T04:08:37;0.93;;;0.25;;
46222;SDS011;31943;51.410;7.564;2023-04-01T04:11:06;0.43;;;0.00;;
46222;SDS011;31943;51.410;7.564;2023-04-01T04:13:32;0.20;;;0.20;;
46222;SDS011;31943;51.410;7.564;2023-04-01T04:15:59;0.65;;;0.20;;
46222;SDS011;31943;51.410;7.564;2023-04-01T04:18:25;0.22;;;0.10;;
46222;SDS011;31943;51.410;7.564;2023-04-01T04:20:51;0.20;;;0.13;;
46222;SDS011;31943;51.410;7.564;2023-04-01T04:23:16;0.10;;;0.10;;
46222;SDS011;31943;51.410;7.564;2023-04-01T04:25:52;0.38;;;0.20;;
46222;SDS011;31943;51.410;7.564;2023-04-01T04:28:21;1.13;;;0.10;;
46222;SDS011;31943;51.410;7.564;2023-04-01T04:30:48;0.52;;;0.10;;
46222;SDS011;31943;51.410;7.564;2023-04-01T04:33:17;0.05;;;0.05;;
46222;SDS011;31943;51.410;7.564;2023-04-01T04:35:43;0.20;;;0.10;;
46222;SDS011;31943;51.410;7.564;2023-04-01T04:38:09;0.08;;;0.08;;
46222;SDS011;31943;51.410;7.564;2023-04-01T04:40:35;1.17;;;0.20;;
46222;SDS011;31943;51.410;7.564;2023-04-01T04:43:01;0.20;;;0.20;;
46222;SDS011;31943;51.410;7.564;2023-04-01T04:45:28;0.35;;;0.20;;
46222;SDS011;31943;51.410;7.564;2023-04-01T04:47:54;0.47;;;0.10;;
46222;SDS011;31943;51.410;7.564;2023-04-01T04:50:22;1.05;;;0.30;;
46222;SDS011;31943;51.410;7.564;2023-04-01T04:52:48;0.30;;;0.10;;
46222;SDS011;31943;51.410;7.564;2023-04-01T04:55:14;0.73;;;0.30;;
46222;SDS011;31943;51.410;7.564;2023-04-01T04:57:40;0.08;;;0.08;;
46222;SDS011;31943;51.410;7.564;2023-04-01T05:00:06;0.70;;;0.15;;
46222;SDS011;31943;51.410;7.564;2023-04-01T05:02:35;0.38;;;0.10;;
46222;SDS011;31943;51.410;7.564;2023-04-01T05:05:01;0.38;;;0.20;;
46222;SDS011;31943;51.410;7.564;2023-04-01T05:07:29;0.55;;;0.25;;
46222;SDS011;31943;51.410;7.564;2023-04-01T05:09:55;0.30;;;0.28;;
46222;SDS011;31943;51.410;7.564;2023-04-01T05:12:21;0.52;;;0.20;;
46222;SDS011;31943;51.410;7.564;2023-04-01T05:14:46;0.10;;;0.10;;
46222;SDS011;31943;51.410;7.564;2023-04-01T05:17:12;0.22;;;0.15;;
46222;SDS011;31943;51.410;7.564;2023-04-01T05:19:43;0.28;;;0.20;;
46222;SDS011;31943;51.410;7.564;2023-04-01T05:22:10;0.20;;;0.20;;
46222;SDS011;31943;51.410;7.564;2023-04-01T05:24:35;0.68;;;0.22;;
46222;SDS011;31943;51.410;7.564;2023-04-01T05:27:02;0.20;;;0.20;;
46222;SDS011;31943;51.410;7.564;2023-04-01T05:29:28;2.42;;;0.40;;
46222;SDS011;31943;51.410;7.564;2023-04-01T05:31:53;1.98;;;0.32;;
46222;SDS011;31943;51.410;7.564;2023-04-01T05:34:20;1.73;;;0.30;;
46222;SDS011;31943;51.410;7.564;2023-04-01T05:36:47;2.00;;;0.40;;
46222;SDS011;31943;51.410;7.564;2023-04-01T05:39:13;0.93;;;0.30;;
46222;SDS011;31943;51.410;7.564;2023-04-01T05:41:39;0.28;;;0.17;;
46222;SDS011;31943;51.410;7.564;2023-04-01T05:44:04;0.60;;;0.20;;
46222;SDS011;31943;51.410;7.564;2023-04-01T05:46:30;1.20;;;0.32;;
46222;SDS011;31943;51.410;7.564;2023-04-01T05:48:56;0.30;;;0.20;;
46222;SDS011;31943;51.410;7.564;2023-04-01T05:51:22;0.52;;;0.20;;
46222;SDS011;31943;51.410;7.564;2023-04-01T05:53:49;0.77;;;0.32;;
46222;SDS011;31943;51.410;7.564;2023-04-01T05:56:15;0.30;;;0.30;;
46222;SDS011;31943;51.410;7.564;2023-04-01T05:58:43;0.50;;;0.20;;
46222;SDS011;31943;51.410;7.564;2023-04-01T06:01:15;0.28;;;0.20;;
46222;SDS011;31943;51.410;7.564;2023-04-01T06:03:42;0.90;;;0.22;;
46222;SDS011;31943;51.410;7.564;2023-04-01T06:06:10;0.50;;;0.30;;
46222;SDS011;31943;51.410;7.564;2023-04-01T06:08:39;0.40;;;0.30;;
46222;SDS011;31943;51.410;7.564;2023-04-01T06:11:12;0.93;;;0.32;;
46222;SDS011;31943;51.410;7.564;2023-04-01T06:13:52;1.40;;;0.30;;
46222;SDS011;31943;51.410;7.564;2023-04-01T06:16:35;0.85;;;0.30;;
46222;SDS011;31943;51.410;7.564;2023-04-01T06:22:02;0.82;;;0.40;;
46222;SDS011;31943;51.410;7.564;2023-04-01T06:25:11;0.60;;;0.20;;
46222;SDS011;31943;51.410;7.564;2023-04-01T06:30:57;0.10;;;0.10;;
46222;SDS011;31943;51.410;7.564;2023-04-01T06:33:31;0.20;;;0.20;;
46222;SDS011;31943;51.410;7.564;2023-04-01T06:36:20;0.55;;;0.20;;
46222;SDS011;31943;51.410;7.564;2023-04-01T06:39:06;0.40;;;0.10;;
46222;SDS011;31943;51.410;7.564;2023-04-01T06:41:49;0.20;;;0.20;;
46222;SDS011;31943;51.410;7.564;2023-04-01T06:44:47;0.43;;;0.20;;
46222;SDS011;31943;51.410;7.564;2023-04-01T06:47:30;0.10;;;0.10;;
46222;SDS011;31943;51.410;7.564;2023-04-01T06:50:07;1.17;;;0.10;;
46222;SDS011;31943;51.410;7.564;2023-04-01T06:52:47;1.55;;;0.30;;
46222;SDS011;31943;51.410;7.564;2023-04-01T06:55:24;0.25;;;0.13;;
46222;SDS011;31943;51.410;7.564;2023-04-01T06:57:54;0.98;;;0.20;;
46222;SDS011;31943;51.410;7.564;2023-04-01T07:00:27;0.35;;;0.20;;
46222;SDS011;31943;51.410;7.564;2023-04-01T07:02:59;2.67;;;0.30;;
46222;SDS011;31943;51.410;7.564;2023-04-01T07:05:38;0.55;;;0.45;;
46222;SDS011;31943;51.410;7.564;2023-04-01T07:08:08;0.10;;;0.10;;
46222;SDS011;31943;51.410;7.564;2023-04-01T07:10:43;0.68;;;0.22;;
46222;SDS011;31943;51.410;7.564;2023-04-01T07:13:15;0.28;;;0.20;;
46222;SDS011;31943;51.410;7.564;2023-04-01T07:15:54;0.65;;;0.28;;
46222;SDS011;31943;51.410;7.564;2023-04-01T07:18:29;0.50;;;0.15;;
46222;SDS011;31943;51.410;7.564;2023-04-01T07:20:59;0.63;;;0.28;;
46222;SDS011;31943;51.410;7.564;2023-04-01T07:23:28;0.60;;;0.35;;
46222;SDS011;31943;51.410;7.564;2023-04-01T07:26:01;0.28;;;0.20;;
46222;SDS011;31943;51.410;7.564;2023-04-01T07:28:36;0.22;;;0.10;;
46222;SDS011;31943;51.410;7.564;2023-04-01T07:31:05;0.63;;;0.20;;
46222;SDS011;31943;51.410;7.564;2023-04-01T07:33:43;0.65;;;0.20;;
46222;SDS011;31943;51.410;7.564;2023-04-01T07:36:17;0.20;;;0.10;;
46222;SDS011;31943;51.410;7.564;2023-04-01T07:38:52;0.60;;;0.32;;
46222;SDS011;31943;51.410;7.564;2023-04-01T07:41:27;0.32;;;0.28;;
46222;SDS011;31943;51.410;7.564;2023-04-01T07:44:00;0.25;;;0.20;;
46222;SDS011;31943;51.410;7.564;2023-04-01T07:46:42;0.30;;;0.20;;
46222;SDS011;31943;51.410;7.564;2023-04-01T07:49:47;0.75;;;0.35;;
46222;SDS011;31943;51.410;7.564;2023-04-01T07:52:24;0.43;;;0.30;;
46222;SDS011;31943;51.410;7.564;2023-04-01T07:55:02;0.10;;;0.10;;
46222;SDS011;31943;51.410;7.564;2023-04-01T07:57:34;0.63;;;0.32;;
46222;SDS011;31943;51.410;7.564;2023-04-01T08:00:09;0.73;;;0.40;;
46222;SDS011;31943;51.410;7.564;2023-04-01T08:02:44;0.52;;;0.50;;
46222;SDS011;31943;51.410;7.564;2023-04-01T08:05:25;1.15;;;0.28;;
46222;SDS011;31943;51.410;7.564;2023-04-01T08:07:55;0.55;;;0.40;;
46222;SDS011;31943;51.410;7.564;2023-04-01T08:10:34;0.43;;;0.10;;
46222;SDS011;31943;51.410;7.564;2023-04-01T08:13:07;0.30;;;0.30;;
46222;SDS011;31943;51.410;7.564;2023-04-01T08:15:42;0.40;;;0.20;;
46222;SDS011;31943;51.410;7.564;2023-04-01T08:18:17;0.30;;;0.20;;
46222;SDS011;31943;51.410;7.564;2023-04-01T08:20:54;0.40;;;0.30;;
46222;SDS011;31943;51.410;7.564;2023-04-01T08:25:52;0.20;;;0.20;;
46222;SDS011;31943;51.410;7.564;2023-04-01T08:28:22;0.40;;;0.20;;
46222;SDS011;31943;51.410;7.564;2023-04-01T08:30:56;1.33;;;0.30;;
46222;SDS011;31943;51.410;7.564;2023-04-01T08:33:25;0.57;;;0.30;;
46222;SDS011;31943;51.410;7.564;2023-04-01T08:35:54;0.80;;;0.30;;
46222;SDS011;31943;51.410;7.564;2023-04-01T08:41:00;0.90;;;0.70;;
46222;SDS011;31943;51.410;7.564;2023-04-01T08:46:19;1.17;;;0.70;;
46222;SDS011;31943;51.410;7.564;2023-04-01T08:49:05;0.38;;;0.30;;
46222;SDS011;31943;51.410;7.564;2023-04-01T08:51:51;1.75;;;0.65;;
46222;SDS011;31943;51.410;7.564;2023-04-01T08:54:46;2.58;;;0.45;;
46222;SDS011;31943;51.410;7.564;2023-04-01T08:57:34;0.95;;;0.60;;
46222;SDS011;31943;51.410;7.564;2023-04-01T09:00:13;2.38;;;1.00;;
46222;SDS011;31943;51.410;7.564;2023-04-01T09:02:54;2.08;;;1.40;;
46222;SDS011;31943;51.410;7.564;2023-04-01T09:05:48;1.50;;;0.75;;
46222;SDS011;31943;51.410;7.564;2023-04-01T09:08:48;2.58;;;0.90;;
46222;SDS011;31943;51.410;7.564;2023-04-01T09:11:30;0.50;;;0.50;;
46222;SDS011;31943;51.410;7.564;2023-04-01T09:17:21;1.23;;;0.70;;
46222;SDS011;31943;51.410;7.564;2023-04-01T09:20:19;0.85;;;0.77;;
46222;SDS011;31943;51.410;7.564;2023-04-01T09:23:15;0.75;;;0.63;;
46222;SDS011;31943;51.410;7.564;2023-04-01T09:25:59;1.10;;;0.70;;
46222;SDS011;31943;51.410;7.564;2023-04-01T09:28:39;1.38;;;1.00;;
46222;SDS011;31943;51.410;7.564;2023-04-01T09:34:08;1.10;;;0.70;;
46222;SDS011;31943;51.410;7.564;2023-04-01T09:36:52;2.08;;;0.82;;
46222;SDS011;31943;51.410;7.564;2023-04-01T09:39:37;1.83;;;0.73;;
46222;SDS011;31943;51.410;7.564;2023-04-01T09:42:15;0.93;;;0.80;;
46222;SDS011;31943;51.410;7.564;2023-04-01T09:45:07;1.33;;;0.80;;
46222;SDS011;31943;51.410;7.564;2023-04-01T09:47:43;1.35;;;0.80;;
46222;SDS011;31943;51.410;7.564;2023-04-01T09:50:28;2.15;;;0.95;;
46222;SDS011;31943;51.410;7.564;2023-04-01T09:53:10;0.90;;;0.70;;
46222;SDS011;31943;51.410;7.564;2023-04-01T10:08:15;0.82;;;0.75;;
46222;SDS011;31943;51.410;7.564;2023-04-01T10:11:29;1.00;;;0.80;;
46222;SDS011;31943;51.410;7.564;2023-04-01T10:14:19;1.17;;;0.98;;
46222;SDS011;31943;51.410;7.564;2023-04-01T10:17:00;2.47;;;1.10;;
46222;SDS011;31943;51.410;7.564;2023-04-01T10:19:55;10.23;;;1.80;;
46222;SDS011;31943;51.410;7.564;2023-04-01T10:22:43;2.22;;;1.33;;
46222;SDS011;31943;51.410;7.564;2023-04-01T10:28:35;4.40;;;1.75;;
46222;SDS011;31943;51.410;7.564;2023-04-01T10:31:38;5.65;;;2.17;;
46222;SDS011;31943;51.410;7.564;2023-04-01T10:37:48;4.40;;;2.75;;
46222;SDS011;31943;51.410;7.564;2023-04-01T10:40:39;2.47;;;2.28;;
46222;SDS011;31943;51.410;7.564;2023-04-01T10:43:49;2.70;;;2.50;;
46222;SDS011;31943;51.410;7.564;2023-04-01T10:46:55;3.22;;;2.90;;
46222;SDS011;31943;51.410;7.564;2023-04-01T10:49:48;2.80;;;2.45;;
46222;SDS011;31943;51.410;7.564;2023-04-01T10:52:52;4.20;;;2.75;;
46222;SDS011;31943;51.410;7.564;2023-04-01T10:55:36;3.60;;;3.30;;
46222;SDS011;31943;51.410;7.564;2023-04-01T10:58:24;5.70;;;3.58;;
46222;SDS011;31943;51.410;7.564;2023-04-01T11:01:17;3.90;;;3.60;;
46222;SDS011;31943;51.410;7.564;2023-04-01T11:04:29;3.63;;;3.30;;
46222;SDS011;31943;51.410;7.564;2023-04-01T11:16:53;4.00;;;3.60;;
46222;SDS011;31943;51.410;7.564;2023-04-01T11:19:50;3.28;;;2.97;;
46222;SDS011;31943;51.410;7.564;2023-04-01T11:22:48;3.30;;;3.00;;
46222;SDS011;31943;51.410;7.564;2023-04-01T11:25:28;3.10;;;2.80;;
46222;SDS011;31943;51.410;7.564;2023-04-01T11:28:17;3.58;;;2.90;;
46222;SDS011;31943;51.410;7.564;2023-04-01T11:31:11;3.33;;;2.80;;
46222;SDS011;31943;51.410;7.564;2023-04-01T11:33:54;5.57;;;2.30;;
46222;SDS011;31943;51.410;7.564;2023-04-01T11:36:30;3.67;;;2.88;;
46222;SDS011;31943;51.410;7.564;2023-04-01T11:39:08;3.67;;;2.35;;
46222;SDS011;31943;51.410;7.564;2023-04-01T11:41:41;2.50;;;2.30;;
46222;SDS011;31943;51.410;7.564;2023-04-01T11:44:16;2.55;;;2.33;;
46222;SDS011;31943;51.410;7.564;2023-04-01T11:49:39;1.90;;;1.80;;
46222;SDS011;31943;51.410;7.564;2023-04-01T11:52:21;2.85;;;2.20;;
46222;SDS011;31943;51.410;7.564;2023-04-01T11:55:15;3.38;;;2.05;;
46222;SDS011;31943;51.410;7.564;2023-04-01T11:58:06;1.83;;;1.70;;
46222;SDS011;31943;51.410;7.564;2023-04-01T12:00:50;1.60;;;1.50;;
46222;SDS011;31943;51.410;7.564;2023-04-01T12:03:43;1.80;;;1.67;;
46222;SDS011;31943;51.410;7.564;2023-04-01T12:06:22;1.80;;;1.40;;
46222;SDS011;31943;51.410;7.564;2023-04-01T12:08:53;2.63;;;1.35;;
46222;SDS011;31943;51.410;7.564;2023-04-01T12:11:28;1.98;;;1.50;;
46222;SDS011;31943;51.410;7.564;2023-04-01T12:13:59;1.63;;;1.35;;
46222;SDS011;31943;51.410;7.564;2023-04-01T12:16:37;1.63;;;1.50;;
46222;SDS011;31943;51.410;7.564;2023-04-01T12:19:13;1.65;;;1.40;;
46222;SDS011;31943;51.410;7.564;2023-04-01T12:21:45;2.10;;;1.85;;
46222;SDS011;31943;51.410;7.564;2023-04-01T12:30:02;2.50;;;1.50;;
46222;SDS011;31943;51.410;7.564;2023-04-01T12:32:53;1.75;;;1.55;;
46222;SDS011;31943;51.410;7.564;2023-04-01T12:35:37;3.08;;;2.50;;
46222;SDS011;31943;51.410;7.564;2023-04-01T12:38:19;2.22;;;1.70;;
46222;SDS011;31943;51.410;7.564;2023-04-01T12:41:08;1.58;;;1.45;;
46222;SDS011;31943;51.410;7.564;2023-04-01T12:43:52;2.17;;;1.60;;
46222;SDS011;31943;51.410;7.564;2023-04-01T12:46:51;3.00;;;1.40;;
46222;SDS011;31943;51.410;7.564;2023-04-01T12:49:34;1.50;;;1.10;;
46222;SDS011;31943;51.410;7.564;2023-04-01T12:52:18;2.63;;;1.45;;
46222;SDS011;31943;51.410;7.564;2023-04-01T13:01:10;1.30;;;1.15;;
46222;SDS011;31943;51.410;7.564;2023-04-01T13:03:55;1.90;;;1.23;;
46222;SDS011;31943;51.410;7.564;2023-04-01T13:06:47;2.10;;;1.45;;
46222;SDS011;31943;51.410;7.564;2023-04-01T13:09:26;2.70;;;1.75;;
46222;SDS011;31943;51.410;7.564;2023-04-01T13:12:10;1.80;;;1.65;;
46222;SDS011;31943;51.410;7.564;2023-04-01T13:15:04;2.97;;;2.53;;
46222;SDS011;31943;51.410;7.564;2023-04-01T13:17:43;2.78;;;2.10;;
46222;SDS011;31943;51.410;7.564;2023-04-01T13:20:20;3.05;;;2.30;;
46222;SDS011;31943;51.410;7.564;2023-04-01T13:23:00;6.75;;;5.25;;
46222;SDS011;31943;51.410;7.564;2023-04-01T13:25:39;3.15;;;2.85;;
46222;SDS011;31943;51.410;7.564;2023-04-01T13:28:15;2.53;;;2.22;;
46222;SDS011;31943;51.410;7.564;2023-04-01T13:30:47;2.20;;;1.90;;
46222;SDS011;31943;51.410;7.564;2023-04-01T13:33:21;2.42;;;1.90;;
46222;SDS011;31943;51.410;7.564;2023-04-01T13:35:58;1.48;;;1.30;;
46222;SDS011;31943;51.410;7.564;2023-04-01T13:38:40;2.03;;;1.83;;
46222;SDS011;31943;51.410;7.564;2023-04-01T13:41:28;1.65;;;1.50;;
46222;SDS011;31943;51.410;7.564;2023-04-01T13:44:11;2.22;;;1.67;;
46222;SDS011;31943;51.410;7.564;2023-04-01T13:46:51;1.90;;;1.70;;
46222;SDS011;31943;51.410;7.564;2023-04-01T13:49:39;4.53;;;3.53;;
46222;SDS011;31943;51.410;7.564;2023-04-01T13:52:30;2.65;;;2.40;;
46222;SDS011;31943;51.410;7.564;2023-04-01T13:58:15;3.22;;;2.92;;
46222;SDS011;31943;51.410;7.564;2023-04-01T14:00:54;3.30;;;3.00;;
46222;SDS011;31943;51.410;7.564;2023-04-01T14:03:28;3.40;;;3.10;;
46222;SDS011;31943;51.410;7.564;2023-04-01T14:08:56;3.38;;;3.08;;
46222;SDS011;31943;51.410;7.564;2023-04-01T14:11:33;3.75;;;3.30;;
46222;SDS011;31943;51.410;7.564;2023-04-01T14:14:05;4.80;;;3.63;;
46222;SDS011;31943;51.410;7.564;2023-04-01T14:17:01;3.20;;;2.90;;
46222;SDS011;31943;51.410;7.564;2023-04-01T14:19:47;3.25;;;2.95;;
46222;SDS011;31943;51.410;7.564;2023-04-01T14:22:28;3.72;;;2.75;;
46222;SDS011;31943;51.410;7.564;2023-04-01T14:28:03;2.72;;;2.53;;
46222;SDS011;31943;51.410;7.564;2023-04-01T14:30:43;3.28;;;2.97;;
46222;SDS011;31943;51.410;7.564;2023-04-01T14:42:18;4.50;;;2.78;;
46222;SDS011;31943;51.410;7.564;2023-04-01T14:45:02;2.90;;;2.60;;
46222;SDS011;31943;51.410;7.564;2023-04-01T14:47:47;3.55;;;3.25;;
46222;SDS011;31943;51.410;7.564;2023-04-01T14:50:17;2.55;;;2.35;;
46222;SDS011;31943;51.410;7.564;2023-04-01T14:52:47;2.80;;;1.98;;
46222;SDS011;31943;51.410;7.564;2023-04-01T14:55:26;3.35;;;1.98;;
46222;SDS011;31943;51.410;7.564;2023-04-01T14:58:00;2.35;;;2.00;;
46222;SDS011;31943;51.410;7.564;2023-04-01T15:00:40;3.53;;;2.58;;
46222;SDS011;31943;51.410;7.564;2023-04-01T15:03:13;2.13;;;1.92;;
46222;SDS011;31943;51.410;7.564;2023-04-01T15:05:49;2.10;;;1.88;;
46222;SDS011;31943;51.410;7.564;2023-04-01T15:08:19;1.92;;;1.75;;
46222;SDS011;31943;51.410;7.564;2023-04-01T15:10:57;3.63;;;3.28;;
46222;SDS011;31943;51.410;7.564;2023-04-01T15:13:40;4.30;;;3.90;;
46222;SDS011;31943;51.410;7.564;2023-04-01T15:16:45;2.42;;;2.22;;
46222;SDS011;31943;51.410;7.564;2023-04-01T15:19:22;2.50;;;2.15;;
46222;SDS011;31943;51.410;7.564;2023-04-01T15:21:59;2.90;;;2.63;;
46222;SDS011;31943;51.410;7.564;2023-04-01T15:24:41;2.80;;;2.53;;
46222;SDS011;31943;51.410;7.564;2023-04-01T15:27:18;3.25;;;2.42;;
46222;SDS011;31943;51.410;7.564;2023-04-01T15:29:59;2.67;;;2.42;;
46222;SDS011;31943;51.410;7.564;2023-04-01T15:32:39;2.60;;;2.30;;
46222;SDS011;31943;51.410;7.564;2023-04-01T15:35:21;3.33;;;2.40;;
46222;SDS011;31943;51.410;7.564;2023-04-01T15:37:58;2.78;;;2.55;;
46222;SDS011;31943;51.410;7.564;2023-04-01T15:40:31;2.60;;;2.35;;
46222;SDS011;31943;51.410;7.564;2023-04-01T15:43:10;4.90;;;3.90;;
46222;SDS011;31943;51.410;7.564;2023-04-01T15:45:49;3.92;;;3.15;;
46222;SDS011;31943;51.410;7.564;2023-04-01T15:48:26;3.20;;;2.55;;
46222;SDS011;31943;51.410;7.564;2023-04-01T15:51:12;6.18;;;4.30;;
46222;SDS011;31943;51.410;7.564;2023-04-01T15:53:52;3.80;;;2.60;;
46222;SDS011;31943;51.410;7.564;2023-04-01T15:56:28;5.40;;;4.65;;
46222;SDS011;31943;51.410;7.564;2023-04-01T15:59:11;4.38;;;3.97;;
46222;SDS011;31943;51.410;7.564;2023-04-01T16:01:50;7.18;;;5.88;;
46222;SDS011;31943;51.410;7.564;2023-04-01T16:04:31;5.90;;;5.30;;
46222;SDS011;31943;51.410;7.564;2023-04-01T16:07:10;3.25;;;2.95;;
46222;SDS011;31943;51.410;7.564;2023-04-01T16:09:55;3.03;;;2.83;;
46222;SDS011;31943;51.410;7.564;2023-04-01T16:12:41;3.13;;;2.83;;
46222;SDS011;31943;51.410;7.564;2023-04-01T16:15:20;3.38;;;3.08;;
46222;SDS011;31943;51.410;7.564;2023-04-01T16:17:57;4.10;;;3.70;;
46222;SDS011;31943;51.410;7.564;2023-04-01T16:20:35;4.55;;;3.50;;
46222;SDS011;31943;51.410;7.564;2023-04-01T16:23:11;3.97;;;3.58;;
46222;SDS011;31943;51.410;7.564;2023-04-01T16:25:49;4.50;;;4.05;;
46222;SDS011;31943;51.410;7.564;2023-04-01T16:28:23;4.05;;;3.75;;
46222;SDS011;31943;51.410;7.564;2023-04-01T16:30:55;4.90;;;4.50;;
46222;SDS011;31943;51.410;7.564;2023-04-01T16:33:27;5.82;;;4.82;;
46222;SDS011;31943;51.410;7.564;2023-04-01T16:36:07;5.25;;;4.70;;
46222;SDS011;31943;51.410;7.564;2023-04-01T16:38:36;6.18;;;5.68;;
46222;SDS011;31943;51.410;7.564;2023-04-01T16:41:11;4.93;;;4.45;;
46222;SDS011;31943;51.410;7.564;2023-04-01T16:43:42;5.90;;;5.32;;
46222;SDS011;31943;51.410;7.564;2023-04-01T16:46:20;5.75;;;4.70;;
46222;SDS011;31943;51.410;7.564;2023-04-01T16:48:58;4.43;;;4.03;;
46222;SDS011;31943;51.410;7.564;2023-04-01T16:51:47;4.57;;;4.18;;
46222;SDS011;31943;51.410;7.564;2023-04-01T16:54:28;4.97;;;4.20;;
46222;SDS011;31943;51.410;7.564;2023-04-01T16:57:02;4.10;;;3.78;;
46222;SDS011;31943;51.410;7.564;2023-04-01T16:59:38;5.40;;;4.90;;
46222;SDS011;31943;51.410;7.564;2023-04-01T17:02:10;3.45;;;3.15;;
46222;SDS011;31943;51.410;7.564;2023-04-01T17:04:41;3.75;;;3.45;;
46222;SDS011;31943;51.410;7.564;2023-04-01T17:07:19;3.88;;;3.58;;